Time;durP1;ratioP1;P1;durP2;ratioP2;P2;SDS_P1;SDS_P2;PMS_P1;PMS_P2;Temp;Humidity;BMP_temperature;BMP_pressure;BME280_temperature;BME280_humidity;BME280_pressure;Samples;Min_cycle;Max_cycle;Signal;HPM_P1;HPM_P2
2021/03/29 04:02:05;;;;;;;3.00;2.80;;;10.70;99.90;;;;;;5204268;23;20253;-75
2021/03/29 04:04:31;;;;;;;3.55;3.22;;;10.70;99.90;;;;;;4930144;29;20735;-75
2021/03/29 04:06:57;;;;;;;4.63;3.00;;;10.70;99.90;;;;;;4919154;29;20218;-75
2021/03/29 04:09:31;;;;;;;5.75;3.60;;;10.70;99.90;;;;;;4933902;29;20213;-75
2021/03/29 04:11:57;;;;;;;8.25;3.30;;;10.70;99.90;;;;;;4922716;29;20588;-74
2021/03/29 04:14:23;;;;;;;4.32;3.45;;;10.70;99.90;;;;;;4917820;29;20232;-73
2021/03/29 04:16:50;;;;;;;3.03;2.75;;;10.70;99.90;;;;;;4917492;29;20266;-72
2021/03/29 04:19:17;;;;;;;7.10;2.80;;;10.70;99.90;;;;;;4900424;29;20230;-72
2021/03/29 04:21:43;;;;;;;3.47;2.60;;;10.70;99.90;;;;;;4900542;29;20235;-72
2021/03/29 04:24:10;;;;;;;3.47;3.22;;;10.70;99.90;;;;;;4914716;29;20202;-73
2021/03/29 04:26:36;;;;;;;4.97;2.55;;;10.70;99.90;;;;;;4905240;29;20531;-72
2021/03/29 04:29:02;;;;;;;4.72;3.65;;;10.70;99.90;;;;;;4913530;29;20570;-72
2021/03/29 04:31:28;;;;;;;3.13;2.70;;;10.70;99.90;;;;;;4906061;29;20227;-72
2021/03/29 04:33:54;;;;;;;4.32;3.63;;;10.70;99.90;;;;;;4911410;29;20226;-73
2021/03/29 04:36:21;;;;;;;5.45;3.00;;;10.70;99.90;;;;;;4916430;29;20206;-73
2021/03/29 04:38:48;;;;;;;3.22;2.75;;;10.70;99.90;;;;;;4905933;29;20708;-72
2021/03/29 04:41:14;;;;;;;5.22;2.47;;;10.70;99.90;;;;;;4907110;29;20353;-72
2021/03/29 04:43:40;;;;;;;4.43;3.00;;;10.70;99.90;;;;;;4901205;29;20207;-72
2021/03/29 04:46:06;;;;;;;3.92;2.35;;;10.70;99.90;;;;;;4902099;29;20605;-73
2021/03/29 04:48:32;;;;;;;6.60;2.90;;;10.70;99.90;;;;;;4899477;29;20266;-73
2021/03/29 04:50:58;;;;;;;2.97;2.75;;;10.70;99.90;;;;;;4902556;29;20226;-73
2021/03/29 04:53:26;;;;;;;5.13;2.80;;;10.70;99.90;;;;;;4917564;29;20651;-73
2021/03/29 04:55:52;;;;;;;3.75;2.30;;;10.70;99.90;;;;;;4913816;29;20641;-73
2021/03/29 04:58:18;;;;;;;2.72;2.38;;;10.70;99.90;;;;;;4918320;29;20556;-73
2021/03/29 05:00:44;;;;;;;3.92;2.60;;;10.70;99.90;;;;;;4915647;29;20368;-73
2021/03/29 05:03:10;;;;;;;5.32;3.20;;;10.70;99.90;;;;;;4899590;29;20299;-72
2021/03/29 05:05:36;;;;;;;4.55;3.28;;;10.70;99.90;;;;;;4898043;29;20200;-73
2021/03/29 05:08:03;;;;;;;6.03;3.92;;;10.70;99.90;;;;;;4917087;29;20266;-73
2021/03/29 05:10:30;;;;;;;5.90;3.55;;;10.60;99.90;;;;;;4917236;29;20234;-72
2021/03/29 05:12:56;;;;;;;3.17;2.75;;;10.70;99.90;;;;;;4900387;29;20294;-72
2021/03/29 05:15:23;;;;;;;2.63;2.53;;;10.60;99.90;;;;;;4906650;29;20226;-72
2021/03/29 05:17:50;;;;;;;4.65;2.90;;;10.60;99.90;;;;;;4900697;29;20215;-72
2021/03/29 05:20:16;;;;;;;3.67;2.83;;;10.60;99.90;;;;;;4904733;29;20202;-73
2021/03/29 05:22:42;;;;;;;2.65;2.38;;;10.70;99.90;;;;;;4902209;29;20781;-72
2021/03/29 05:25:09;;;;;;;4.07;2.75;;;10.70;99.90;;;;;;4904901;29;20342;-72
2021/03/29 05:27:36;;;;;;;3.50;3.20;;;10.70;99.90;;;;;;4917051;29;20616;-72
2021/03/29 05:30:02;;;;;;;4.32;2.85;;;10.70;99.90;;;;;;4913387;29;20586;-72
2021/03/29 05:32:29;;;;;;;6.53;3.35;;;10.70;99.90;;;;;;4909394;29;20238;-72
2021/03/29 05:34:56;;;;;;;5.70;3.30;;;10.70;99.90;;;;;;4900492;29;20971;-72
2021/03/29 05:37:24;;;;;;;5.50;3.35;;;10.80;99.90;;;;;;4898772;29;20290;-73
2021/03/29 05:39:52;;;;;;;4.72;3.70;;;10.80;99.90;;;;;;4903303;29;20275;-72
2021/03/29 05:42:19;;;;;;;5.05;3.92;;;10.80;99.90;;;;;;4917356;29;20233;-73
2021/03/29 05:44:47;;;;;;;4.68;3.85;;;10.70;99.90;;;;;;4913383;29;20522;-72
2021/03/29 05:47:15;;;;;;;5.43;4.78;;;10.70;99.90;;;;;;4917904;29;20214;-74
2021/03/29 05:49:42;;;;;;;8.63;4.43;;;10.80;99.90;;;;;;4901418;29;20203;-74
2021/03/29 05:52:08;;;;;;;5.97;4.07;;;10.80;99.90;;;;;;4917124;29;20234;-75
2021/03/29 05:54:35;;;;;;;5.88;4.38;;;10.80;99.90;;;;;;4899290;29;20695;-76
2021/03/29 05:57:01;;;;;;;10.18;7.07;;;10.80;99.90;;;;;;4916575;29;20252;-75
2021/03/29 05:59:34;;;;;;;4.55;3.67;;;10.80;99.90;;;;;;4915472;29;20206;-75
2021/03/29 06:02:01;;;;;;;7.10;4.53;;;10.80;99.90;;;;;;4915513;29;20242;-75
2021/03/29 06:04:44;;;;;;;5.78;5.15;;;10.80;99.90;;;;;;4898039;29;20266;-76
2021/03/29 06:07:12;;;;;;;5.53;4.35;;;10.90;99.90;;;;;;4899042;29;20219;-75
2021/03/29 06:09:38;;;;;;;7.05;4.78;;;10.90;99.90;;;;;;4897505;29;20556;-75
2021/03/29 06:12:05;;;;;;;6.68;4.22;;;10.90;99.90;;;;;;4914550;29;20230;-75
2021/03/29 06:14:34;;;;;;;4.40;4.00;;;10.90;99.90;;;;;;4915085;29;20553;-75
2021/03/29 06:17:03;;;;;;;16.25;5.90;;;11.00;99.90;;;;;;4917596;29;20297;-75
2021/03/29 06:19:48;;;;;;;8.93;4.85;;;11.00;99.90;;;;;;4915454;29;20219;-76
2021/03/29 06:22:20;;;;;;;5.18;4.43;;;11.00;99.90;;;;;;4916385;29;20281;-75
2021/03/29 06:24:58;;;;;;;5.97;4.05;;;11.10;99.90;;;;;;4915035;29;20206;-75
2021/03/29 06:27:26;;;;;;;7.38;4.28;;;11.20;99.90;;;;;;4917387;29;20261;-75
2021/03/29 06:30:14;;;;;;;5.60;4.00;;;11.30;99.90;;;;;;4915105;29;20625;-74
2021/03/29 06:32:59;;;;;;;7.97;4.20;;;11.40;99.90;;;;;;4915715;29;20198;-75
2021/03/29 06:35:29;;;;;;;4.97;4.30;;;11.40;99.90;;;;;;4896709;29;20235;-75
2021/03/29 06:38:04;;;;;;;10.60;8.02;;;11.50;99.90;;;;;;4905527;29;20675;-75
2021/03/29 06:40:31;;;;;;;9.15;7.28;;;11.60;99.90;;;;;;4897223;29;20226;-75
2021/03/29 06:42:57;;;;;;;8.35;4.85;;;11.60;99.90;;;;;;4904470;29;20211;-74
2021/03/29 06:45:23;;;;;;;6.13;4.50;;;11.60;99.90;;;;;;4898404;29;20207;-75
2021/03/29 06:47:50;;;;;;;27.08;17.98;;;11.60;99.90;;;;;;4904687;29;20269;-75
2021/03/29 06:50:23;;;;;;;9.20;6.45;;;11.70;99.90;;;;;;4896555;29;20211;-75
2021/03/29 06:52:49;;;;;;;43.53;26.45;;;11.80;99.90;;;;;;4909883;29;20214;-75
2021/03/29 06:55:21;;;;;;;8.90;4.55;;;11.80;99.90;;;;;;4915663;29;20226;-74
2021/03/29 06:57:59;;;;;;;6.28;4.60;;;11.90;99.90;;;;;;4903771;29;20215;-76
2021/03/29 07:00:31;;;;;;;8.73;5.47;;;11.90;99.90;;;;;;4915635;29;20579;-76
2021/03/29 07:03:03;;;;;;;17.02;9.95;;;12.00;99.90;;;;;;4905623;29;20215;-75
2021/03/29 07:05:31;;;;;;;7.30;5.22;;;12.20;99.90;;;;;;4918518;29;20239;-75
2021/03/29 07:07:57;;;;;;;9.00;4.82;;;12.10;99.90;;;;;;4917888;29;20221;-76
2021/03/29 07:10:24;;;;;;;21.20;12.80;;;12.20;99.90;;;;;;4919184;29;20213;-75
2021/03/29 07:12:52;;;;;;;11.73;8.20;;;12.20;99.90;;;;;;4908091;29;20326;-75
2021/03/29 07:15:20;;;;;;;22.58;14.20;;;12.30;99.90;;;;;;4910352;29;20726;-74
2021/03/29 07:17:46;;;;;;;9.20;6.65;;;12.30;99.90;;;;;;4903619;29;20219;-76
2021/03/29 07:20:15;;;;;;;8.85;5.47;;;12.30;99.90;;;;;;4918058;29;20203;-76
2021/03/29 07:22:43;;;;;;;5.70;3.97;;;12.30;99.90;;;;;;4916593;29;20569;-75
2021/03/29 07:25:11;;;;;;;6.97;6.22;;;12.20;99.90;;;;;;4907705;29;20230;-75
2021/03/29 07:27:43;;;;;;;6.25;3.80;;;12.20;99.90;;;;;;4912509;29;20221;-76
2021/03/29 07:30:13;;;;;;;8.00;4.57;;;12.30;99.90;;;;;;4905433;29;20215;-73
2021/03/29 07:32:39;;;;;;;10.27;4.60;;;12.50;99.90;;;;;;4907624;29;20227;-74
2021/03/29 07:35:06;;;;;;;6.88;4.07;;;12.70;99.90;;;;;;4899969;29;20739;-73
2021/03/29 07:37:37;;;;;;;7.00;3.95;;;12.90;99.90;;;;;;4909736;29;20206;-73
2021/03/29 07:40:08;;;;;;;5.85;4.10;;;12.90;99.90;;;;;;4919394;29;20280;-72
2021/03/29 07:42:39;;;;;;;4.50;4.20;;;13.00;99.90;;;;;;4909903;29;20389;-72
2021/03/29 07:45:18;;;;;;;5.20;4.80;;;13.00;99.90;;;;;;4900513;29;20498;-72
2021/03/29 07:47:50;;;;;;;5.53;4.03;;;13.00;99.90;;;;;;4901084;29;20664;-72
2021/03/29 07:50:20;;;;;;;5.43;4.20;;;13.00;99.90;;;;;;4899202;29;20246;-72
2021/03/29 07:52:52;;;;;;;6.13;4.32;;;13.00;99.90;;;;;;4909326;29;20210;-72
2021/03/29 07:55:20;;;;;;;13.30;4.47;;;13.10;99.90;;;;;;4901151;29;20238;-73
2021/03/29 07:58:07;;;;;;;7.37;3.80;;;13.30;99.90;;;;;;4902796;29;20550;-73
2021/03/29 08:00:58;;;;;;;5.77;4.07;;;13.50;99.90;;;;;;4899820;29;20497;-72
2021/03/29 08:03:54;;;;;;;7.40;3.80;;;13.60;99.90;;;;;;4910744;29;20573;-72
2021/03/29 08:06:41;;;;;;;5.60;3.70;;;13.80;99.90;;;;;;4912834;29;20540;-71
2021/03/29 08:09:13;;;;;;;4.17;3.50;;;13.80;99.90;;;;;;4907699;29;20467;-71
2021/03/29 08:12:03;;;;;;;8.57;4.00;;;13.80;99.90;;;;;;4909282;29;20862;-72
2021/03/29 08:14:42;;;;;;;5.13;4.20;;;13.70;99.90;;;;;;4907611;29;20498;-72
2021/03/29 08:17:37;;;;;;;4.40;4.00;;;13.70;99.90;;;;;;4900215;29;20943;-72
2021/03/29 08:20:12;;;;;;;5.97;4.43;;;13.60;99.90;;;;;;4911191;29;20545;-72
2021/03/29 08:22:38;;;;;;;4.40;3.40;;;13.60;99.90;;;;;;4913578;29;20537;-72
2021/03/29 08:25:07;;;;;;;6.20;3.97;;;13.50;99.90;;;;;;4908246;29;20526;-73
2021/03/29 08:27:34;;;;;;;4.67;3.73;;;13.50;99.90;;;;;;4912896;29;20486;-72
2021/03/29 08:30:11;;;;;;;3.67;3.45;;;13.50;99.90;;;;;;4917821;29;20467;-72
2021/03/29 08:32:37;;;;;;;4.37;3.40;;;13.50;99.90;;;;;;4906888;29;20214;-72
2021/03/29 08:35:06;;;;;;;3.90;3.60;;;13.50;99.90;;;;;;4915026;29;21006;-71
2021/03/29 08:37:36;;;;;;;6.53;3.60;;;13.50;99.90;;;;;;4904790;29;20569;-72
2021/03/29 08:40:08;;;;;;;5.73;4.30;;;13.50;99.90;;;;;;4917006;29;20660;-72
2021/03/29 08:42:35;;;;;;;4.83;4.20;;;13.50;99.90;;;;;;4900252;29;20467;-71
2021/03/29 08:45:04;;;;;;;4.20;3.70;;;13.60;99.90;;;;;;4903959;29;20806;-72
2021/03/29 08:47:30;;;;;;;5.63;4.43;;;13.70;99.90;;;;;;4911718;29;20466;-71
2021/03/29 08:49:58;;;;;;;9.20;4.07;;;13.80;99.90;;;;;;4917009;29;20462;-71
2021/03/29 08:52:25;;;;;;;4.57;4.23;;;13.90;99.90;;;;;;4910111;29;20547;-71
2021/03/29 08:54:54;;;;;;;4.57;3.80;;;13.80;99.90;;;;;;4911817;29;20493;-72
2021/03/29 08:57:27;;;;;;;6.13;3.40;;;13.80;99.90;;;;;;4915119;29;20458;-71
2021/03/29 08:59:55;;;;;;;5.20;3.70;;;13.80;99.90;;;;;;4920546;29;20832;-71
2021/03/29 09:02:22;;;;;;;5.73;3.90;;;13.80;99.90;;;;;;4911645;29;20506;-72
2021/03/29 09:04:53;;;;;;;5.93;4.10;;;13.90;99.90;;;;;;4908155;29;20831;-71
2021/03/29 09:07:19;;;;;;;6.77;4.23;;;14.10;99.90;;;;;;4914829;29;20466;-71
2021/03/29 09:09:46;;;;;;;5.47;3.90;;;14.10;99.90;;;;;;4912011;29;20456;-71
2021/03/29 09:12:24;;;;;;;4.53;3.90;;;14.10;99.90;;;;;;4902276;29;20485;-71
2021/03/29 09:14:51;;;;;;;8.43;5.10;;;14.00;99.90;;;;;;4902694;29;20596;-71
2021/03/29 09:17:31;;;;;;;4.00;3.53;;;14.10;99.90;;;;;;4907769;29;20963;-71
2021/03/29 09:19:58;;;;;;;9.57;4.37;;;14.20;99.90;;;;;;4908971;29;20475;-70
2021/03/29 09:22:42;;;;;;;4.17;3.80;;;14.20;99.90;;;;;;4915945;29;20486;-71
2021/03/29 09:25:10;;;;;;;4.50;4.03;;;14.30;99.90;;;;;;4916556;29;20462;-72
2021/03/29 09:27:40;;;;;;;8.80;4.37;;;14.30;99.90;;;;;;4917310;29;20497;-72
2021/03/29 09:30:11;;;;;;;4.63;3.97;;;14.50;99.90;;;;;;4912426;29;20553;-65
2021/03/29 09:32:39;;;;;;;5.93;4.60;;;14.50;99.90;;;;;;4907005;29;20468;-70
2021/03/29 09:35:07;;;;;;;4.30;4.00;;;14.60;99.90;;;;;;4909060;29;20557;-71
2021/03/29 09:37:33;;;;;;;6.20;4.17;;;14.70;99.90;;;;;;4911856;29;20514;-71
2021/03/29 09:40:01;;;;;;;4.37;3.93;;;14.70;99.90;;;;;;4903508;29;20881;-69
2021/03/29 09:42:38;;;;;;;4.27;4.00;;;14.80;99.90;;;;;;4899833;29;20491;-69
2021/03/29 09:45:06;;;;;;;8.30;4.17;;;14.90;99.90;;;;;;4912744;29;20811;-69
2021/03/29 09:47:34;;;;;;;9.10;3.77;;;14.90;99.90;;;;;;4916918;29;20458;-69
2021/03/29 09:50:00;;;;;;;5.13;4.63;;;15.00;99.90;;;;;;4901475;29;20883;-72
2021/03/29 09:52:37;;;;;;;4.13;3.60;;;15.00;99.90;;;;;;4916779;29;20490;-73
2021/03/29 09:55:05;;;;;;;4.53;4.10;;;15.10;99.90;;;;;;4916930;29;20525;-72
2021/03/29 09:57:38;;;;;;;5.57;4.10;;;15.10;99.90;;;;;;4917286;29;20470;-72
2021/03/29 10:00:14;;;;;;;7.00;4.37;;;15.20;99.90;;;;;;4915390;29;20472;-73
2021/03/29 10:02:41;;;;;;;7.97;4.20;;;15.20;99.90;;;;;;4898187;29;20822;-74
2021/03/29 10:05:10;;;;;;;5.00;3.80;;;15.30;99.90;;;;;;4897348;29;20478;-73
2021/03/29 10:07:47;;;;;;;5.20;4.30;;;15.30;99.90;;;;;;4898392;29;20471;-71
2021/03/29 10:10:13;;;;;;;8.60;3.83;;;15.40;99.90;;;;;;4897971;29;20485;-72
2021/03/29 10:12:39;;;;;;;4.63;3.63;;;15.60;99.90;;;;;;4898315;29;20491;-72
2021/03/29 10:15:08;;;;;;;4.23;3.93;;;15.70;99.90;;;;;;4897703;29;20498;-72
2021/03/29 10:17:34;;;;;;;4.90;3.60;;;15.90;99.90;;;;;;4898869;29;20476;-72
2021/03/29 10:20:07;;;;;;;4.17;3.63;;;16.00;99.90;;;;;;4897168;29;20609;-72
2021/03/29 10:22:33;;;;;;;5.50;4.20;;;16.10;99.90;;;;;;4897809;29;20467;-72
2021/03/29 10:25:04;;;;;;;3.93;3.23;;;16.10;99.90;;;;;;4897854;29;20515;-72
2021/03/29 10:27:39;;;;;;;7.07;4.30;;;16.20;99.90;;;;;;4901853;29;20474;-72
2021/03/29 10:30:07;;;;;;;7.90;3.63;;;16.20;99.90;;;;;;4915902;29;20529;-72
2021/03/29 10:32:33;;;;;;;5.10;4.70;;;16.10;99.90;;;;;;4916601;29;20466;-72
2021/03/29 10:34:59;;;;;;;5.63;3.93;;;16.00;99.90;;;;;;4915424;29;20498;-72
2021/03/29 10:37:29;;;;;;;4.60;3.53;;;15.90;99.90;;;;;;4916381;29;21033;-71
2021/03/29 10:39:57;;;;;;;5.10;3.67;;;15.90;99.90;;;;;;4916526;29;20960;-72
2021/03/29 10:42:25;;;;;;;3.97;3.63;;;15.90;99.90;;;;;;4902585;29;20903;-72
2021/03/29 10:44:52;;;;;;;3.70;3.50;;;15.90;99.90;;;;;;4913819;29;20872;-72
2021/03/29 10:47:18;;;;;;;5.33;4.80;;;16.00;99.90;;;;;;4916173;29;20943;-72
2021/03/29 10:49:45;;;;;;;5.87;3.87;;;16.00;99.90;;;;;;4915363;29;20473;-73
2021/03/29 10:52:12;;;;;;;4.13;3.60;;;16.00;99.90;;;;;;4916086;29;20491;-72
2021/03/29 10:54:39;;;;;;;6.73;4.33;;;16.10;99.90;;;;;;4916100;29;20994;-72
2021/03/29 10:57:06;;;;;;;3.93;3.60;;;16.10;99.90;;;;;;4913494;29;20467;-74
2021/03/29 10:59:33;;;;;;;4.30;3.60;;;16.10;99.90;;;;;;4897176;29;20847;-74
2021/03/29 11:01:59;;;;;;;4.73;3.70;;;16.20;99.90;;;;;;4897113;29;20554;-73
2021/03/29 11:04:26;;;;;;;5.63;4.03;;;16.30;99.90;;;;;;4896908;29;20474;-73
2021/03/29 11:06:52;;;;;;;4.63;3.90;;;16.40;99.90;;;;;;4897256;29;20531;-74
2021/03/29 11:09:18;;;;;;;7.70;4.77;;;16.30;99.90;;;;;;4897367;29;20956;-74
2021/03/29 11:11:45;;;;;;;4.33;3.77;;;16.40;99.90;;;;;;4897204;29;20495;-73
2021/03/29 11:14:11;;;;;;;3.57;3.43;;;16.40;99.90;;;;;;4897557;29;20545;-73
2021/03/29 11:16:37;;;;;;;4.20;3.80;;;16.50;99.90;;;;;;4897245;29;20467;-73
2021/03/29 11:19:04;;;;;;;4.73;4.13;;;16.60;99.90;;;;;;4907294;29;20470;-74
2021/03/29 11:21:32;;;;;;;4.50;3.40;;;16.60;99.90;;;;;;4915326;29;20558;-75
2021/03/29 11:23:58;;;;;;;3.90;3.60;;;16.60;99.90;;;;;;4915649;29;20470;-73
2021/03/29 11:26:24;;;;;;;4.33;3.93;;;16.70;99.90;;;;;;4915833;29;20477;-75
2021/03/29 11:28:51;;;;;;;4.20;3.93;;;16.80;99.90;;;;;;4915886;29;20474;-75
2021/03/29 11:31:20;;;;;;;5.20;4.27;;;16.80;99.90;;;;;;4918047;29;20600;-74
2021/03/29 11:33:46;;;;;;;6.33;4.10;;;16.80;99.90;;;;;;4896839;29;20490;-74
2021/03/29 11:36:12;;;;;;;4.37;3.93;;;16.90;99.90;;;;;;4895587;29;20491;-72
2021/03/29 11:38:39;;;;;;;5.07;4.03;;;16.90;99.90;;;;;;4897220;29;20467;-73
2021/03/29 11:41:05;;;;;;;4.30;3.90;;;17.00;99.90;;;;;;4896827;29;20547;-73
2021/03/29 11:43:32;;;;;;;6.73;3.70;;;17.00;99.90;;;;;;4896538;29;20967;-72
2021/03/29 11:45:59;;;;;;;4.37;4.07;;;17.10;99.90;;;;;;4897287;29;20498;-72
2021/03/29 11:48:25;;;;;;;5.50;4.30;;;17.20;99.90;;;;;;4908128;29;20780;-72
2021/03/29 11:50:51;;;;;;;5.80;4.77;;;17.20;99.90;;;;;;4918378;29;20493;-72
2021/03/29 11:53:18;;;;;;;4.90;4.30;;;17.30;99.90;;;;;;4919202;29;20473;-72
2021/03/29 11:55:45;;;;;;;4.03;3.57;;;17.30;99.90;;;;;;4919407;29;20494;-73
2021/03/29 11:58:11;;;;;;;3.80;3.60;;;17.40;99.90;;;;;;4919441;29;20462;-72
2021/03/29 12:00:48;;;;;;;4.23;3.73;;;17.40;99.90;;;;;;4919631;29;20520;-74
2021/03/29 12:03:20;;;;;;;4.70;3.70;;;17.50;99.90;;;;;;4917803;29;20471;-71
2021/03/29 12:05:49;;;;;;;4.17;3.90;;;17.60;99.90;;;;;;4899604;29;20466;-72
2021/03/29 12:08:23;;;;;;;4.70;3.73;;;17.70;99.90;;;;;;4901391;29;20471;-73
2021/03/29 12:13:35;;;;;;;3.83;3.33;;;17.80;99.90;;;;;;4901971;29;20467;-72
2021/03/29 12:16:02;;;;;;;5.87;4.17;;;17.90;99.90;;;;;;4899767;29;20498;-72
2021/03/29 12:18:36;;;;;;;4.30;4.00;;;17.90;99.90;;;;;;4910952;29;20469;-72
2021/03/29 12:21:04;;;;;;;4.50;4.10;;;17.90;99.90;;;;;;4917877;29;20486;-72
2021/03/29 12:23:31;;;;;;;7.90;4.27;;;17.90;99.90;;;;;;4918240;29;20474;-72
2021/03/29 12:25:59;;;;;;;4.10;3.73;;;17.90;99.90;;;;;;4918160;29;20916;-72
2021/03/29 12:28:27;;;;;;;3.63;3.40;;;18.00;99.90;;;;;;4918920;29;20472;-72
2021/03/29 12:30:55;;;;;;;3.63;3.23;;;18.00;99.90;;;;;;4918017;29;20483;-72
2021/03/29 12:33:21;;;;;;;3.37;3.17;;;18.00;99.90;;;;;;4912164;29;20487;-72
2021/03/29 12:35:48;;;;;;;4.03;3.80;;;18.10;99.90;;;;;;4898769;29;20513;-72
2021/03/29 12:38:15;;;;;;;6.37;3.80;;;18.10;99.90;;;;;;4899736;29;20467;-72
2021/03/29 12:40:43;;;;;;;4.53;3.63;;;18.10;99.90;;;;;;4899052;29;20494;-72
2021/03/29 12:43:14;;;;;;;3.60;3.40;;;18.10;99.90;;;;;;4899082;29;20531;-73
2021/03/29 12:45:42;;;;;;;4.40;3.60;;;18.10;99.90;;;;;;4899428;29;20471;-72
2021/03/29 12:48:12;;;;;;;6.00;3.30;;;18.20;99.90;;;;;;4899345;29;20467;-72
2021/03/29 12:50:38;;;;;;;4.13;3.63;;;18.10;99.90;;;;;;4915970;29;20510;-72
2021/03/29 12:53:05;;;;;;;4.73;3.47;;;18.20;99.90;;;;;;4917918;29;20466;-72
2021/03/29 12:55:32;;;;;;;3.63;3.10;;;18.30;99.90;;;;;;4917867;29;20493;-72
2021/03/29 12:57:59;;;;;;;4.60;3.80;;;18.30;99.90;;;;;;4918440;29;20470;-72
2021/03/29 13:00:26;;;;;;;3.60;3.40;;;18.30;99.90;;;;;;4917546;29;20526;-71
2021/03/29 13:02:55;;;;;;;3.90;3.60;;;18.30;99.90;;;;;;4917793;29;20983;-72
2021/03/29 13:05:26;;;;;;;4.40;4.00;;;18.30;99.90;;;;;;4915432;29;20472;-71
2021/03/29 13:07:58;;;;;;;3.00;2.90;;;18.30;99.90;;;;;;4918141;29;20470;-71
2021/03/29 13:13:11;;;;;;;4.47;3.43;;;18.40;99.90;;;;;;4917836;29;20565;-72
2021/03/29 13:15:37;;;;;;;3.60;3.40;;;18.50;99.90;;;;;;4917452;29;20494;-72
2021/03/29 13:18:04;;;;;;;2.90;2.83;;;18.50;99.90;;;;;;4917641;29;20874;-72
2021/03/29 13:20:30;;;;;;;4.10;3.70;;;18.50;99.90;;;;;;4916092;29;20558;-72
2021/03/29 13:22:56;;;;;;;3.63;3.33;;;18.50;99.90;;;;;;4916809;29;20698;-72
2021/03/29 13:25:26;;;;;;;4.07;3.63;;;18.50;99.90;;;;;;4917396;29;20916;-72
2021/03/29 13:27:53;;;;;;;4.00;3.80;;;18.60;99.90;;;;;;4917943;29;20455;-71
2021/03/29 13:30:21;;;;;;;3.63;3.43;;;18.60;99.90;;;;;;4917243;29;20527;-71
2021/03/29 13:32:50;;;;;;;5.60;3.63;;;18.60;99.90;;;;;;4917218;29;20831;-71
2021/03/29 13:35:16;;;;;;;5.50;3.70;;;18.60;99.90;;;;;;4915956;29;20510;-72
2021/03/29 13:37:43;;;;;;;6.30;3.67;;;18.70;99.90;;;;;;4907182;29;20769;-71
2021/03/29 13:40:12;;;;;;;5.67;3.37;;;18.70;99.90;;;;;;4897922;29;20469;-73
2021/03/29 13:42:41;;;;;;;4.33;4.00;;;18.70;99.90;;;;;;4897925;29;20483;-72
2021/03/29 13:45:09;;;;;;;3.13;2.93;;;18.70;99.90;;;;;;4897922;29;20887;-71
2021/03/29 13:47:35;;;;;;;5.77;3.70;;;18.70;99.90;;;;;;4898061;29;20828;-71
2021/03/29 13:50:03;;;;;;;3.57;3.47;;;18.80;99.90;;;;;;4897139;29;20478;-72
2021/03/29 13:52:31;;;;;;;9.37;3.30;;;18.80;99.90;;;;;;4898975;29;20997;-72
2021/03/29 13:54:58;;;;;;;4.33;4.03;;;18.80;99.90;;;;;;4916370;29;21021;-72
2021/03/29 13:57:24;;;;;;;4.17;3.80;;;18.70;99.90;;;;;;4916986;29;20470;-71
2021/03/29 13:59:51;;;;;;;4.67;4.37;;;18.80;99.90;;;;;;4916644;29;20908;-72
2021/03/29 14:02:17;;;;;;;4.93;4.10;;;18.70;99.90;;;;;;4916275;29;20654;-72
2021/03/29 14:04:44;;;;;;;4.10;3.90;;;18.70;99.90;;;;;;4915489;29;20463;-72
2021/03/29 14:07:11;;;;;;;3.83;3.47;;;18.70;99.90;;;;;;4916796;29;20482;-72
2021/03/29 14:09:38;;;;;;;4.10;3.77;;;18.70;99.90;;;;;;4914855;29;20466;-72
2021/03/29 14:12:07;;;;;;;3.50;3.30;;;18.70;99.90;;;;;;4916179;29;20490;-72
2021/03/29 14:14:33;;;;;;;4.10;3.80;;;18.70;99.90;;;;;;4916261;29;20509;-72
2021/03/29 14:17:00;;;;;;;3.90;3.70;;;18.80;99.90;;;;;;4916525;29;20833;-72
2021/03/29 14:19:26;;;;;;;4.90;4.00;;;18.80;99.90;;;;;;4916286;29;20476;-72
2021/03/29 14:21:54;;;;;;;4.60;4.20;;;18.80;99.90;;;;;;4915857;29;20562;-72
2021/03/29 14:24:21;;;;;;;3.70;3.50;;;18.90;99.90;;;;;;4914928;29;20470;-72
2021/03/29 14:26:48;;;;;;;4.93;4.53;;;18.90;99.90;;;;;;4916292;29;20470;-72
2021/03/29 14:29:14;;;;;;;4.10;3.70;;;18.90;99.90;;;;;;4916179;29;20470;-73
2021/03/29 14:31:41;;;;;;;4.03;3.83;;;18.90;99.90;;;;;;4915794;29;20972;-72
2021/03/29 14:34:12;;;;;;;6.90;4.60;;;18.90;99.90;;;;;;4915748;29;20462;-73
2021/03/29 14:36:47;;;;;;;4.57;4.17;;;18.90;99.90;;;;;;4915853;29;20585;-72
2021/03/29 14:39:18;;;;;;;3.80;3.60;;;18.90;99.90;;;;;;4915967;29;20474;-72
2021/03/29 14:41:58;;;;;;;4.10;3.80;;;18.90;99.90;;;;;;4914179;29;20482;-72
2021/03/29 14:44:31;;;;;;;3.70;3.50;;;18.90;99.90;;;;;;4915903;29;20474;-75
2021/03/29 14:46:59;;;;;;;4.83;4.43;;;18.90;99.90;;;;;;4915886;29;20498;-75
2021/03/29 14:49:27;;;;;;;4.87;3.77;;;18.90;99.90;;;;;;4909328;29;20471;-75
2021/03/29 14:51:56;;;;;;;4.30;4.00;;;18.80;99.90;;;;;;4913824;29;20912;-75
2021/03/29 14:54:22;;;;;;;3.53;3.43;;;18.90;99.90;;;;;;4915398;29;20477;-75
2021/03/29 14:56:48;;;;;;;4.60;3.97;;;18.90;99.90;;;;;;4916017;29;20501;-75
2021/03/29 14:59:15;;;;;;;4.70;4.30;;;18.90;99.90;;;;;;4915922;29;20485;-75
2021/03/29 15:01:41;;;;;;;5.33;3.87;;;18.90;99.90;;;;;;4915743;29;20610;-75
2021/03/29 15:04:10;;;;;;;5.10;4.30;;;18.90;99.90;;;;;;4909635;29;20470;-75
2021/03/29 15:06:43;;;;;;;4.07;3.77;;;18.90;99.90;;;;;;4896286;29;20554;-76
2021/03/29 15:09:10;;;;;;;4.27;3.90;;;18.80;99.90;;;;;;4896403;29;20472;-76
2021/03/29 15:11:36;;;;;;;4.33;4.03;;;18.80;99.90;;;;;;4896239;29;20591;-76
2021/03/29 15:14:03;;;;;;;4.33;4.00;;;18.80;99.90;;;;;;4896114;29;20467;-76
2021/03/29 15:16:30;;;;;;;4.83;4.60;;;18.70;99.90;;;;;;4896168;29;20548;-74
2021/03/29 15:18:56;;;;;;;5.03;4.60;;;18.80;99.90;;;;;;4897081;29;20474;-73
2021/03/29 15:21:22;;;;;;;4.67;4.37;;;18.70;99.90;;;;;;4896963;29;20522;-73
2021/03/29 15:23:49;;;;;;;4.70;4.30;;;18.70;99.90;;;;;;4900797;29;20470;-73
2021/03/29 15:26:16;;;;;;;4.03;3.83;;;18.70;99.90;;;;;;4900596;29;20924;-73
2021/03/29 15:28:42;;;;;;;4.27;4.07;;;18.70;99.90;;;;;;4900752;29;20487;-73
2021/03/29 15:31:09;;;;;;;5.43;5.03;;;18.70;99.90;;;;;;4900707;29;20492;-73
2021/03/29 15:33:36;;;;;;;6.07;5.17;;;18.70;99.90;;;;;;4900375;29;20475;-73
2021/03/29 15:36:02;;;;;;;4.73;4.50;;;18.70;99.90;;;;;;4900164;29;20991;-71
2021/03/29 15:38:28;;;;;;;5.80;4.93;;;18.60;99.90;;;;;;4900648;29;20559;-71
2021/03/29 15:40:56;;;;;;;4.90;4.33;;;18.60;99.90;;;;;;4900972;29;20503;-72
2021/03/29 15:43:22;;;;;;;7.00;3.97;;;18.60;99.90;;;;;;4918404;29;20483;-71
2021/03/29 15:45:48;;;;;;;4.07;3.80;;;18.60;99.90;;;;;;4918915;29;20473;-72
2021/03/29 15:48:15;;;;;;;7.10;4.67;;;18.70;99.90;;;;;;4918961;29;20552;-71
2021/03/29 15:50:41;;;;;;;5.30;4.90;;;18.70;99.90;;;;;;4918164;29;20485;-71
2021/03/29 15:53:08;;;;;;;6.47;4.90;;;18.70;99.90;;;;;;4906890;29;20466;-71
2021/03/29 15:55:34;;;;;;;5.60;5.00;;;18.70;99.90;;;;;;4900544;29;20490;-72
2021/03/29 15:58:04;;;;;;;4.80;4.50;;;18.70;99.90;;;;;;4900079;29;20490;-72
2021/03/29 16:00:31;;;;;;;4.40;4.10;;;18.70;99.90;;;;;;4902200;29;20482;-72
2021/03/29 16:03:00;;;;;;;5.30;4.60;;;18.70;99.90;;;;;;4899991;29;20471;-71
2021/03/29 16:05:26;;;;;;;5.40;4.33;;;18.70;99.90;;;;;;4899041;29;20478;-71
2021/03/29 16:07:53;;;;;;;4.73;4.23;;;18.60;99.90;;;;;;4900564;29;20960;-71
2021/03/29 16:10:19;;;;;;;5.57;5.20;;;18.60;99.90;;;;;;4899738;29;20474;-71
2021/03/29 16:12:45;;;;;;;4.97;4.67;;;18.60;99.90;;;;;;4901472;29;20527;-72
2021/03/29 16:15:13;;;;;;;4.60;4.27;;;18.50;99.90;;;;;;4899911;29;20484;-72
2021/03/29 16:17:40;;;;;;;4.30;4.10;;;18.50;99.90;;;;;;4899758;29;20471;-72
2021/03/29 16:20:08;;;;;;;5.20;4.83;;;18.40;99.90;;;;;;4898717;29;20479;-72
2021/03/29 16:22:35;;;;;;;6.10;5.50;;;18.40;99.90;;;;;;4899708;29;20471;-72
2021/03/29 16:25:02;;;;;;;5.33;4.90;;;18.40;99.90;;;;;;4899208;29;20546;-72
2021/03/29 16:27:28;;;;;;;5.43;4.60;;;18.40;99.90;;;;;;4909938;29;20534;-73
2021/03/29 16:29:55;;;;;;;4.73;4.33;;;18.30;99.90;;;;;;4903654;29;20878;-72
2021/03/29 16:32:23;;;;;;;4.60;4.20;;;18.30;99.90;;;;;;4899774;29;20906;-72
2021/03/29 16:34:50;;;;;;;4.57;4.27;;;18.30;99.90;;;;;;4898183;29;20965;-72
2021/03/29 16:37:17;;;;;;;5.17;4.70;;;18.30;99.90;;;;;;4899779;29;20611;-72
2021/03/29 16:39:43;;;;;;;4.50;4.10;;;18.20;99.90;;;;;;4899539;29;20471;-73
2021/03/29 16:42:10;;;;;;;5.43;4.77;;;18.20;99.90;;;;;;4900028;29;21000;-73
2021/03/29 16:44:38;;;;;;;5.10;4.80;;;18.20;99.90;;;;;;4912454;29;20827;-73
2021/03/29 16:47:05;;;;;;;4.40;4.10;;;18.10;99.90;;;;;;4899429;29;20475;-73
2021/03/29 16:49:32;;;;;;;5.10;4.60;;;18.00;99.90;;;;;;4898994;29;20494;-73
2021/03/29 16:51:58;;;;;;;5.73;5.30;;;18.00;99.90;;;;;;4898804;29;20498;-73
2021/03/29 16:54:25;;;;;;;6.47;4.80;;;17.90;99.90;;;;;;4899063;29;21252;-73
2021/03/29 16:56:51;;;;;;;4.40;4.10;;;17.80;99.90;;;;;;4899310;29;20559;-74
2021/03/29 16:59:17;;;;;;;5.57;4.70;;;17.80;99.90;;;;;;4900113;29;20778;-74